createdAt,value
2022-09-28T00:00:35.988Z,950.49
2022-09-28T00:01:36.005Z,950.51
2022-09-28T00:02:36.081Z,950.49
2022-09-28T00:03:35.963Z,950.46
2022-09-28T00:04:35.936Z,950.44
2022-09-28T00:05:35.943Z,950.47
2022-09-28T00:06:35.927Z,950.45
2022-09-28T00:07:35.927Z,950.42
2022-09-28T00:08:35.934Z,950.43
2022-09-28T00:09:35.878Z,950.45
2022-09-28T00:10:35.875Z,950.42
2022-09-28T00:11:35.856Z,950.40
2022-09-28T00:12:35.883Z,950.33
2022-09-28T00:13:35.831Z,950.32
2022-09-28T00:14:35.820Z,950.31
2022-09-28T00:15:35.812Z,950.31
2022-09-28T00:16:35.903Z,950.30
2022-09-28T00:17:35.798Z,950.28
2022-09-28T00:18:35.798Z,950.29
2022-09-28T00:19:35.771Z,950.26
2022-09-28T00:20:35.777Z,950.26
2022-09-28T00:21:35.752Z,950.31
2022-09-28T00:22:35.777Z,950.29
2022-09-28T00:23:35.736Z,950.23
2022-09-28T00:24:35.742Z,950.21
2022-09-28T00:25:35.695Z,950.21
2022-09-28T00:26:35.686Z,950.20
2022-09-28T00:27:35.692Z,950.16
2022-09-28T00:28:35.690Z,950.16
2022-09-28T00:29:35.677Z,950.08
2022-09-28T00:30:35.641Z,950.07
2022-09-28T00:31:35.701Z,950.07
2022-09-28T00:32:35.619Z,950.03
2022-09-28T00:33:35.640Z,949.99
2022-09-28T00:34:35.639Z,949.91
2022-09-28T00:35:35.603Z,949.83
2022-09-28T00:36:35.578Z,949.73
2022-09-28T00:37:35.561Z,949.72
2022-09-28T00:38:35.554Z,949.69
2022-09-28T00:39:35.552Z,949.65
2022-09-28T00:40:35.584Z,949.62
2022-09-28T00:41:35.532Z,949.63
2022-09-28T00:42:35.514Z,949.66
2022-09-28T00:43:35.498Z,949.59
2022-09-28T00:44:35.561Z,949.56
2022-09-28T00:45:35.560Z,949.56
2022-09-28T00:46:35.484Z,949.57
2022-09-28T00:47:35.449Z,949.49
2022-09-28T00:48:35.440Z,949.55
2022-09-28T00:49:35.459Z,949.56
2022-09-28T00:50:35.440Z,949.52
2022-09-28T00:51:35.427Z,949.52
2022-09-28T00:52:35.426Z,949.53
2022-09-28T00:53:35.420Z,949.49
2022-09-28T00:54:35.372Z,949.52
2022-09-28T00:55:35.368Z,949.41
2022-09-28T00:56:35.355Z,949.36
2022-09-28T00:57:35.378Z,949.37
2022-09-28T00:58:35.362Z,949.32
2022-09-28T00:59:35.316Z,949.32
2022-09-28T01:00:35.402Z,949.24
2022-09-28T01:01:35.311Z,949.24
2022-09-28T01:02:35.322Z,949.25
2022-09-28T01:03:35.298Z,949.23
2022-09-28T01:04:35.299Z,949.17
2022-09-28T01:05:35.267Z,949.23
2022-09-28T01:06:35.268Z,949.16
2022-09-28T01:07:35.245Z,949.13
2022-09-28T01:08:35.254Z,949.15
2022-09-28T01:09:35.225Z,949.17
2022-09-28T01:10:35.230Z,949.15
2022-09-28T01:11:35.184Z,949.13
2022-09-28T01:12:35.181Z,949.09
2022-09-28T01:13:35.195Z,949.12
2022-09-28T01:14:35.170Z,949.08
2022-09-28T01:15:35.137Z,949.12
2022-09-28T01:16:35.262Z,949.13
2022-09-28T01:17:35.128Z,949.11
2022-09-28T01:18:35.120Z,949.05
2022-09-28T01:19:35.112Z,949.05
2022-09-28T01:20:35.101Z,949.02
2022-09-28T01:21:35.077Z,948.98
2022-09-28T01:22:35.069Z,949.00
2022-09-28T01:23:35.046Z,948.94
2022-09-28T01:24:35.066Z,948.96
2022-09-28T01:25:35.038Z,948.91
2022-09-28T01:26:35.045Z,948.87
2022-09-28T01:27:35.004Z,948.87
2022-09-28T01:28:35.001Z,948.87
2022-09-28T01:29:34.987Z,948.84
2022-09-28T01:30:34.973Z,948.82
2022-09-28T01:31:35.049Z,948.80
2022-09-28T01:32:34.970Z,948.78
2022-09-28T01:33:34.936Z,948.75
2022-09-28T01:34:34.933Z,948.72
2022-09-28T01:35:34.933Z,948.74
2022-09-28T01:36:34.911Z,948.75
2022-09-28T01:37:34.916Z,948.76
2022-09-28T01:38:34.877Z,948.69
2022-09-28T01:39:34.928Z,948.70
2022-09-28T01:40:34.989Z,948.72
2022-09-28T01:41:34.875Z,948.70
2022-09-28T01:42:34.848Z,948.67
2022-09-28T01:43:34.847Z,948.67
2022-09-28T01:44:34.853Z,948.63
2022-09-28T01:45:34.846Z,948.65
2022-09-28T01:46:34.798Z,948.61
2022-09-28T01:47:34.793Z,948.64
2022-09-28T01:48:34.803Z,948.57
2022-09-28T01:49:34.795Z,948.53
2022-09-28T01:50:34.744Z,948.49
2022-09-28T01:51:34.734Z,948.48
2022-09-28T01:52:34.740Z,948.45
2022-09-28T01:53:34.760Z,948.44
2022-09-28T01:54:34.726Z,948.44
2022-09-28T01:55:34.690Z,948.42
2022-09-28T01:56:34.680Z,948.37
2022-09-28T01:57:34.669Z,948.39
2022-09-28T01:58:34.685Z,948.42
2022-09-28T01:59:34.658Z,948.39
2022-09-28T02:00:34.739Z,948.31
2022-09-28T02:01:34.621Z,948.29
2022-09-28T02:02:34.670Z,948.20
2022-09-28T02:03:34.627Z,948.21
2022-09-28T02:04:34.607Z,948.19
2022-09-28T02:05:34.599Z,948.17
2022-09-28T02:06:34.608Z,948.17
2022-09-28T02:07:34.553Z,948.08
2022-09-28T02:08:34.543Z,948.08
2022-09-28T02:09:34.556Z,948.09
2022-09-28T02:10:34.539Z,948.00
2022-09-28T02:11:34.536Z,948.00
2022-09-28T02:12:34.536Z,947.92
2022-09-28T02:13:34.500Z,947.93
2022-09-28T02:14:34.511Z,947.89
2022-09-28T02:15:34.488Z,947.85
2022-09-28T02:16:34.574Z,947.81
2022-09-28T02:17:34.464Z,947.81
2022-09-28T02:18:34.439Z,947.80
2022-09-28T02:19:34.420Z,947.74
2022-09-28T02:20:34.433Z,947.73
2022-09-28T02:21:34.433Z,947.74
2022-09-28T02:22:34.415Z,947.71
2022-09-28T02:23:34.517Z,947.70
2022-09-28T02:24:34.372Z,947.70
2022-09-28T02:25:34.351Z,947.68
2022-09-28T02:26:34.359Z,947.69
2022-09-28T02:27:34.339Z,947.59
2022-09-28T02:28:34.346Z,947.68
2022-09-28T02:29:34.354Z,947.67
2022-09-28T02:30:34.309Z,947.69
2022-09-28T02:31:34.373Z,947.66
2022-09-28T02:32:34.297Z,947.68
2022-09-28T02:33:34.303Z,947.67
2022-09-28T02:34:34.277Z,947.62
2022-09-28T02:35:34.240Z,947.59
2022-09-28T02:36:34.266Z,947.58
2022-09-28T02:37:34.222Z,947.55
2022-09-28T02:38:34.222Z,947.55
2022-09-28T02:39:34.217Z,947.51
2022-09-28T02:40:34.291Z,947.54
2022-09-28T02:41:34.174Z,947.52
2022-09-28T02:42:34.173Z,947.48
2022-09-28T02:43:34.168Z,947.46
2022-09-28T02:44:34.149Z,947.41
2022-09-28T02:45:34.213Z,947.38
2022-09-28T02:46:34.116Z,947.37
2022-09-28T02:47:34.108Z,947.36
2022-09-28T02:48:43.741Z,947.31
2022-09-28T02:49:35.110Z,947.33
2022-09-28T02:50:34.088Z,947.25
2022-09-28T02:51:34.098Z,947.29
2022-09-28T02:52:34.067Z,947.33
2022-09-28T02:53:34.041Z,947.31
2022-09-28T02:54:34.044Z,947.18
2022-09-28T02:55:34.021Z,947.23
2022-09-28T02:56:34.027Z,947.21
2022-09-28T02:57:34.023Z,947.27
2022-09-28T02:58:33.994Z,947.19
2022-09-28T02:59:33.975Z,947.18
2022-09-28T03:00:34.062Z,947.18
2022-09-28T03:01:33.999Z,947.14
2022-09-28T03:02:33.955Z,947.16
2022-09-28T03:03:33.969Z,947.13
2022-09-28T03:04:33.929Z,947.12
2022-09-28T03:05:33.908Z,947.11
2022-09-28T03:06:33.941Z,947.08
2022-09-28T03:07:33.899Z,947.07
2022-09-28T03:08:33.895Z,947.05
2022-09-28T03:09:33.899Z,947.05
2022-09-28T03:10:33.847Z,947.13
2022-09-28T03:11:33.848Z,947.13
2022-09-28T03:12:33.838Z,947.10
2022-09-28T03:13:33.837Z,947.09
2022-09-28T03:14:33.845Z,947.03
2022-09-28T03:15:33.795Z,947.02
2022-09-28T03:16:33.860Z,946.96
2022-09-28T03:17:33.797Z,946.97
2022-09-28T03:18:33.801Z,946.90
2022-09-28T03:19:33.793Z,946.97
2022-09-28T03:20:33.739Z,946.90
2022-09-28T03:21:33.781Z,946.92
2022-09-28T03:22:33.719Z,946.91
2022-09-28T03:23:33.704Z,946.88
2022-09-28T03:24:33.728Z,946.86
2022-09-28T03:25:33.682Z,946.90
2022-09-28T03:26:33.668Z,946.89
2022-09-28T03:27:33.674Z,946.87
2022-09-28T03:28:33.656Z,946.91
2022-09-28T03:29:33.642Z,946.91
2022-09-28T03:30:33.637Z,946.86
2022-09-28T03:31:33.763Z,946.87
2022-09-28T03:32:33.616Z,946.85
2022-09-28T03:33:33.596Z,946.84
2022-09-28T03:34:33.595Z,946.79
2022-09-28T03:35:33.579Z,946.77
2022-09-28T03:36:33.579Z,946.82
2022-09-28T03:37:33.601Z,946.73
2022-09-28T03:38:33.534Z,946.77
2022-09-28T03:39:33.530Z,946.68
2022-09-28T03:40:33.594Z,946.73
2022-09-28T03:41:33.517Z,946.71
2022-09-28T03:42:33.490Z,946.63
2022-09-28T03:43:33.535Z,946.64
2022-09-28T03:44:33.468Z,946.67
2022-09-28T03:45:33.550Z,946.63
2022-09-28T03:46:33.452Z,946.63
2022-09-28T03:47:33.458Z,946.57
2022-09-28T03:48:33.466Z,946.60
2022-09-28T03:49:33.422Z,946.58
2022-09-28T03:50:33.400Z,946.57
2022-09-28T03:51:33.426Z,946.57
2022-09-28T03:52:33.389Z,946.58
2022-09-28T03:53:33.398Z,946.54
2022-09-28T03:54:33.358Z,946.58
2022-09-28T03:55:33.354Z,946.58
2022-09-28T03:56:33.385Z,946.54
2022-09-28T03:57:33.357Z,946.56
2022-09-28T03:58:33.330Z,946.54
2022-09-28T03:59:33.325Z,946.48
2022-09-28T04:00:33.300Z,946.50
2022-09-28T04:01:33.406Z,946.49
2022-09-28T04:02:33.366Z,946.46
2022-09-28T04:03:33.299Z,946.39
2022-09-28T04:04:33.256Z,946.43
2022-09-28T04:05:33.275Z,946.41
2022-09-28T04:06:33.240Z,946.46
2022-09-28T04:07:33.225Z,946.48
2022-09-28T04:08:33.217Z,946.41
2022-09-28T04:09:33.200Z,946.38
2022-09-28T04:10:33.207Z,946.37
2022-09-28T04:11:43.080Z,946.42
2022-09-28T04:12:34.190Z,946.34
2022-09-28T04:13:33.161Z,946.37
2022-09-28T04:14:33.134Z,946.40
2022-09-28T04:15:33.138Z,946.37
2022-09-28T04:16:33.213Z,946.36
2022-09-28T04:17:36.515Z,946.41
2022-09-28T04:18:34.103Z,946.32
2022-09-28T04:19:33.096Z,946.31
2022-09-28T04:20:33.072Z,946.32
2022-09-28T04:21:33.066Z,946.28
2022-09-28T04:22:33.076Z,946.26
2022-09-28T04:23:33.032Z,946.31
2022-09-28T04:24:33.041Z,946.24
2022-09-28T04:25:33.065Z,946.24
2022-09-28T04:26:33.012Z,946.19
2022-09-28T04:27:33.006Z,946.19
2022-09-28T04:28:32.992Z,946.20
2022-09-28T04:29:32.965Z,946.18
2022-09-28T04:30:33.005Z,946.17
2022-09-28T04:31:33.041Z,946.17
2022-09-28T04:32:32.977Z,946.20
2022-09-28T04:33:32.946Z,946.17
2022-09-28T04:34:35.977Z,946.22
2022-09-28T04:35:33.939Z,946.16
2022-09-28T04:36:32.899Z,946.18
2022-09-28T04:37:32.888Z,946.16
2022-09-28T04:38:51.795Z,946.15
2022-09-28T04:39:33.852Z,946.17
2022-09-28T04:40:32.884Z,946.20
2022-09-28T04:41:32.830Z,946.08
2022-09-28T04:42:32.847Z,946.12
2022-09-28T04:43:32.826Z,946.08
2022-09-28T04:44:32.838Z,946.08
2022-09-28T04:45:32.880Z,946.10
2022-09-28T04:46:32.799Z,946.03
2022-09-28T04:47:32.770Z,946.07
2022-09-28T04:48:32.753Z,946.08
2022-09-28T04:49:32.791Z,946.11
2022-09-28T04:50:32.729Z,946.08
2022-09-28T04:51:32.717Z,946.06
2022-09-28T04:52:32.723Z,946.11
2022-09-28T04:53:32.710Z,946.05
2022-09-28T04:54:32.698Z,946.04
2022-09-28T04:55:32.716Z,946.13
2022-09-28T04:56:32.693Z,946.10
2022-09-28T04:57:32.673Z,946.07
2022-09-28T04:58:32.640Z,946.09
2022-09-28T04:59:32.648Z,946.07
2022-09-28T05:00:32.651Z,946.10
2022-09-28T05:01:32.689Z,946.07
2022-09-28T05:02:32.700Z,946.06
2022-09-28T05:03:32.599Z,946.08
2022-09-28T05:04:32.579Z,946.16
2022-09-28T05:05:32.569Z,946.07
2022-09-28T05:06:32.573Z,946.12
2022-09-28T05:07:32.590Z,946.02
2022-09-28T05:08:32.531Z,946.02
2022-09-28T05:09:36.355Z,946.05
2022-09-28T05:10:33.521Z,946.06
2022-09-28T05:11:32.503Z,946.07
2022-09-28T05:12:32.513Z,946.09
2022-09-28T05:13:32.520Z,946.10
2022-09-28T05:14:32.517Z,946.14
2022-09-28T05:15:32.465Z,946.11
2022-09-28T05:16:32.510Z,946.10
2022-09-28T05:17:32.477Z,946.10
2022-09-28T05:18:32.437Z,946.07
2022-09-28T05:19:32.460Z,946.08
2022-09-28T05:20:32.403Z,946.07
2022-09-28T05:21:32.455Z,945.99
2022-09-28T05:22:32.373Z,945.98
2022-09-28T05:23:34.327Z,946.04
2022-09-28T05:24:32.378Z,946.02
2022-09-28T05:25:32.341Z,945.97
2022-09-28T05:26:32.334Z,945.97
2022-09-28T05:27:32.328Z,945.98
2022-09-28T05:28:32.313Z,945.95
2022-09-28T05:29:32.833Z,945.98
2022-09-28T05:30:32.330Z,945.98
2022-09-28T05:31:32.343Z,945.97
2022-09-28T05:32:32.283Z,945.94
2022-09-28T05:33:32.249Z,945.94
2022-09-28T05:34:32.250Z,945.99
2022-09-28T05:35:32.296Z,945.91
2022-09-28T05:36:32.254Z,945.95
2022-09-28T05:37:32.204Z,945.97
2022-09-28T05:38:32.205Z,945.86
2022-09-28T05:39:32.186Z,945.89
2022-09-28T05:40:32.265Z,945.83
2022-09-28T05:41:32.188Z,945.74
2022-09-28T05:42:32.147Z,945.71
2022-09-28T05:43:32.155Z,945.68
2022-09-28T05:44:32.149Z,945.70
2022-09-28T05:45:32.166Z,945.69
2022-09-28T05:46:32.128Z,945.63
2022-09-28T05:47:32.124Z,945.65
2022-09-28T05:48:32.096Z,945.61
2022-09-28T05:49:32.099Z,945.60
2022-09-28T05:50:32.078Z,945.60
2022-09-28T05:51:32.066Z,945.57
2022-09-28T05:52:32.071Z,945.62
2022-09-28T05:53:32.033Z,945.60
2022-09-28T05:54:32.038Z,945.58
2022-09-28T05:55:32.063Z,945.57
2022-09-28T05:56:31.991Z,945.57
2022-09-28T05:57:32.000Z,945.54
2022-09-28T05:58:31.969Z,945.58
2022-09-28T05:59:31.976Z,945.52
2022-09-28T06:00:31.944Z,945.53
2022-09-28T06:01:40.557Z,945.59
2022-09-28T06:02:31.976Z,945.56
2022-09-28T06:03:31.941Z,945.60
2022-09-28T06:04:31.915Z,945.56
2022-09-28T06:05:31.891Z,945.64
2022-09-28T06:06:31.879Z,945.62
2022-09-28T06:07:31.891Z,945.63
2022-09-28T06:08:31.872Z,945.66
2022-09-28T06:09:31.885Z,945.65
2022-09-28T06:10:31.831Z,945.63
2022-09-28T06:11:31.823Z,945.65
2022-09-28T06:12:31.890Z,945.70
2022-09-28T06:13:31.808Z,945.65
2022-09-28T06:14:31.821Z,945.68
2022-09-28T06:15:31.811Z,945.67
2022-09-28T06:16:31.805Z,945.71
2022-09-28T06:17:31.792Z,945.74
2022-09-28T06:18:31.761Z,945.68
2022-09-28T06:19:31.741Z,945.73
2022-09-28T06:20:31.771Z,945.74
2022-09-28T06:21:31.724Z,945.68
2022-09-28T06:22:31.701Z,945.72
2022-09-28T06:23:31.723Z,945.71
2022-09-28T06:24:31.725Z,945.72
2022-09-28T06:25:31.694Z,945.75
2022-09-28T06:26:31.707Z,945.70
2022-09-28T06:27:31.693Z,945.76
2022-09-28T06:28:31.629Z,945.80
2022-09-28T06:29:31.639Z,945.84
2022-09-28T06:30:31.727Z,945.79
2022-09-28T06:31:31.644Z,945.74
2022-09-28T06:32:31.630Z,945.72
2022-09-28T06:33:31.584Z,945.73
2022-09-28T06:34:31.565Z,945.68
2022-09-28T06:35:31.580Z,945.76
2022-09-28T06:36:31.598Z,945.71
2022-09-28T06:37:31.562Z,945.68
2022-09-28T06:38:31.524Z,945.65
2022-09-28T06:39:31.508Z,945.65
2022-09-28T06:40:31.537Z,945.65
2022-09-28T06:41:31.487Z,945.64
2022-09-28T06:42:31.491Z,945.66
2022-09-28T06:43:34.396Z,945.67
2022-09-28T06:44:31.453Z,945.72
2022-09-28T06:45:31.440Z,945.68
2022-09-28T06:46:31.597Z,945.68
2022-09-28T06:47:31.449Z,945.68
2022-09-28T06:48:31.418Z,945.66
2022-09-28T06:49:31.439Z,945.64
2022-09-28T06:50:31.385Z,945.66
2022-09-28T06:51:31.377Z,945.62
2022-09-28T06:52:31.409Z,945.64
2022-09-28T06:53:31.366Z,945.59
2022-09-28T06:54:31.369Z,945.66
2022-09-28T06:55:31.368Z,945.64
2022-09-28T06:56:33.004Z,945.66
2022-09-28T06:57:31.314Z,945.67
2022-09-28T06:58:31.300Z,945.66
2022-09-28T06:59:31.329Z,945.72
2022-09-28T07:00:31.301Z,945.68
2022-09-28T07:01:31.371Z,945.75
2022-09-28T07:02:31.374Z,945.71
2022-09-28T07:03:31.237Z,945.69
2022-09-28T07:04:31.234Z,945.69
2022-09-28T07:05:31.248Z,945.84
2022-09-28T07:06:31.212Z,945.81
2022-09-28T07:07:31.200Z,945.80
2022-09-28T07:08:31.233Z,945.80
2022-09-28T07:09:33.439Z,945.79
2022-09-28T07:10:31.173Z,945.77
2022-09-28T07:11:31.186Z,945.82
2022-09-28T07:12:31.183Z,945.78
2022-09-28T07:13:50.963Z,945.83
2022-09-28T07:14:46.864Z,945.82
2022-09-28T07:15:32.124Z,945.82
2022-09-28T07:16:54.384Z,945.87
2022-09-28T07:17:33.003Z,945.88
2022-09-28T07:18:31.129Z,945.86
2022-09-28T07:19:31.065Z,945.86
2022-09-28T07:20:31.580Z,945.87
2022-09-28T07:21:31.144Z,945.93
2022-09-28T07:22:42.044Z,945.96
2022-09-28T07:23:33.482Z,945.89
2022-09-28T07:24:31.021Z,945.94
2022-09-28T07:25:31.171Z,945.95
2022-09-28T07:26:30.983Z,945.96
2022-09-28T07:27:30.982Z,945.95
2022-09-28T07:28:30.981Z,945.92
2022-09-28T07:29:30.947Z,945.95
2022-09-28T07:30:31.052Z,945.98
2022-09-28T07:31:30.943Z,945.96
2022-09-28T07:33:31.451Z,945.96
2022-09-28T07:34:30.979Z,945.95
2022-09-28T07:35:30.878Z,945.98
2022-09-28T07:36:30.881Z,946.01
2022-09-28T07:37:30.883Z,945.96
2022-09-28T07:38:30.858Z,945.93
2022-09-28T07:39:30.956Z,945.97
2022-09-28T07:40:30.936Z,945.96
2022-09-28T07:41:30.812Z,945.99
2022-09-28T07:42:30.876Z,946.06
2022-09-28T07:43:30.798Z,946.02
2022-09-28T07:44:30.795Z,946.07
2022-09-28T07:45:30.874Z,946.08
2022-09-28T07:46:30.774Z,946.11
2022-09-28T07:47:34.908Z,946.06
2022-09-28T07:48:30.811Z,946.07
2022-09-28T07:49:30.838Z,946.05
2022-09-28T07:50:30.743Z,946.11
2022-09-28T07:51:30.704Z,946.10
2022-09-28T07:52:30.690Z,946.11
2022-09-28T07:53:30.678Z,946.07
2022-09-28T07:54:31.001Z,946.08
2022-09-28T07:55:31.033Z,946.08
2022-09-28T07:56:30.665Z,946.13
2022-09-28T07:57:30.633Z,946.07
2022-09-28T07:58:30.628Z,946.05
2022-09-28T07:59:30.709Z,946.10
2022-09-28T08:00:33.955Z,946.12
2022-09-28T08:01:30.738Z,946.18
2022-09-28T08:02:31.518Z,946.11
2022-09-28T08:03:30.564Z,946.09
2022-09-28T08:04:30.562Z,946.15
2022-09-28T08:05:30.545Z,946.13
2022-09-28T08:06:30.537Z,946.12
2022-09-28T08:07:30.554Z,946.13
2022-09-28T08:08:30.522Z,946.16
2022-09-28T08:09:30.572Z,946.17
2022-09-28T08:10:30.488Z,946.14
2022-09-28T08:11:30.500Z,946.14
2022-09-28T08:12:30.502Z,946.16
2022-09-28T08:13:30.490Z,946.15
2022-09-28T08:14:30.596Z,946.16
2022-09-28T08:15:30.431Z,946.21
2022-09-28T08:16:30.585Z,946.19
2022-09-28T08:17:30.449Z,946.25
2022-09-28T08:18:30.415Z,946.23
2022-09-28T08:19:30.444Z,946.21
2022-09-28T08:20:30.396Z,946.24
2022-09-28T08:21:30.366Z,946.33
2022-09-28T08:22:30.355Z,946.27
2022-09-28T08:23:30.351Z,946.34
2022-09-28T08:24:30.448Z,946.38
2022-09-28T08:25:30.353Z,946.35
2022-09-28T08:26:40.731Z,946.41
2022-09-28T08:27:30.301Z,946.39
2022-09-28T08:28:30.335Z,946.40
2022-09-28T08:29:30.288Z,946.41
2022-09-28T08:30:30.355Z,946.39
2022-09-28T08:31:30.265Z,946.40
2022-09-28T08:32:30.243Z,946.37
2022-09-28T08:33:30.253Z,946.43
2022-09-28T08:34:30.270Z,946.42
2022-09-28T08:35:30.230Z,946.46
2022-09-28T08:36:30.222Z,946.49
2022-09-28T08:37:30.238Z,946.51
2022-09-28T08:38:30.248Z,946.48
2022-09-28T08:39:30.255Z,946.48
2022-09-28T08:40:30.231Z,946.52
2022-09-28T08:41:30.174Z,946.56
2022-09-28T08:42:30.189Z,946.65
2022-09-28T08:43:30.116Z,946.76
2022-09-28T08:44:30.130Z,946.84
2022-09-28T08:45:30.114Z,946.87
2022-09-28T08:46:30.110Z,946.90
2022-09-28T08:47:30.107Z,946.90
2022-09-28T08:48:30.081Z,946.94
2022-09-28T08:49:30.081Z,946.94
2022-09-28T08:50:30.041Z,946.94
2022-09-28T08:51:30.062Z,946.98
2022-09-28T08:52:30.074Z,946.96
2022-09-28T08:53:30.044Z,947.04
2022-09-28T08:54:30.041Z,947.12
2022-09-28T08:55:29.998Z,947.14
2022-09-28T08:56:29.992Z,947.16
2022-09-28T08:57:30.005Z,947.22
2022-09-28T08:58:29.970Z,947.18
2022-09-28T08:59:29.973Z,947.26
2022-09-28T09:00:30.016Z,947.35
2022-09-28T09:01:30.003Z,947.40
2022-09-28T09:02:29.966Z,947.34
2022-09-28T09:03:29.942Z,947.34
2022-09-28T09:04:29.914Z,947.33
2022-09-28T09:05:29.913Z,947.35
2022-09-28T09:06:29.860Z,947.38
2022-09-28T09:07:29.867Z,947.40
2022-09-28T09:08:29.935Z,947.37
2022-09-28T09:09:29.848Z,947.38
2022-09-28T09:10:29.863Z,947.39
2022-09-28T09:11:29.857Z,947.41
2022-09-28T09:12:29.794Z,947.42
2022-09-28T09:13:29.811Z,947.47
2022-09-28T09:14:29.787Z,947.43
2022-09-28T09:15:29.781Z,947.45
2022-09-28T09:16:29.834Z,947.48
2022-09-28T09:17:29.738Z,947.49
2022-09-28T09:18:29.728Z,947.46
2022-09-28T09:19:29.728Z,947.51
2022-09-28T09:20:29.734Z,947.46
2022-09-28T09:21:29.716Z,947.40
2022-09-28T09:22:30.079Z,947.46
2022-09-28T09:23:29.701Z,947.33
2022-09-28T09:24:29.692Z,947.34
2022-09-28T09:25:29.655Z,947.30
2022-09-28T09:26:29.649Z,947.30
2022-09-28T09:27:29.670Z,947.32
2022-09-28T09:28:29.639Z,947.28
2022-09-28T09:29:29.601Z,947.27
2022-09-28T09:30:31.455Z,947.28
2022-09-28T09:31:29.595Z,947.21
2022-09-28T09:32:29.592Z,947.24
2022-09-28T09:33:29.596Z,947.23
2022-09-28T09:34:29.545Z,947.22
2022-09-28T09:35:31.268Z,947.17
2022-09-28T09:36:29.524Z,947.16
2022-09-28T09:37:29.532Z,947.18
2022-09-28T09:38:29.526Z,947.20
2022-09-28T09:39:29.504Z,947.18
2022-09-28T09:40:29.509Z,947.19
2022-09-28T09:41:29.491Z,947.19
2022-09-28T09:42:29.470Z,947.24
2022-09-28T09:43:31.619Z,947.27
2022-09-28T09:44:29.464Z,947.27
2022-09-28T09:45:29.525Z,947.26
2022-09-28T09:46:29.428Z,947.28
2022-09-28T09:47:29.399Z,947.30
2022-09-28T09:48:29.424Z,947.23
2022-09-28T09:49:29.415Z,947.21
2022-09-28T09:50:29.409Z,947.23
2022-09-28T09:51:29.362Z,947.24
2022-09-28T09:52:29.452Z,947.28
2022-09-28T09:53:29.337Z,947.33
2022-09-28T09:54:29.446Z,947.34
2022-09-28T09:55:30.170Z,947.37
2022-09-28T09:56:29.314Z,947.36
2022-09-28T09:57:29.293Z,947.42
2022-09-28T09:58:29.291Z,947.38
2022-09-28T09:59:29.275Z,947.47
2022-09-28T10:00:29.291Z,947.45
2022-09-28T10:01:29.450Z,947.44
2022-09-28T10:02:29.342Z,947.47
2022-09-28T10:03:29.224Z,947.44
2022-09-28T10:04:29.254Z,947.42
2022-09-28T10:05:29.209Z,947.42
2022-09-28T10:06:29.219Z,947.43
2022-09-28T10:07:29.200Z,947.43
2022-09-28T10:08:29.164Z,947.43
2022-09-28T10:09:29.213Z,947.50
2022-09-28T10:10:29.208Z,947.51
2022-09-28T10:11:29.176Z,947.51
2022-09-28T10:12:29.148Z,947.60
2022-09-28T10:13:29.141Z,947.64
2022-09-28T10:14:29.097Z,947.60
2022-09-28T10:15:29.085Z,947.63
2022-09-28T10:16:29.167Z,947.61
2022-09-28T10:17:29.095Z,947.58
2022-09-28T10:18:29.070Z,947.57
2022-09-28T10:19:29.109Z,947.60
2022-09-28T10:20:29.046Z,947.61
2022-09-28T10:21:29.021Z,947.61
2022-09-28T10:22:29.029Z,947.61
2022-09-28T10:23:29.033Z,947.59
2022-09-28T10:24:28.997Z,947.59
2022-09-28T10:25:28.974Z,947.60
2022-09-28T10:26:28.964Z,947.64
2022-09-28T10:27:28.959Z,947.57
2022-09-28T10:28:28.972Z,947.58
2022-09-28T10:29:28.942Z,947.61
2022-09-28T10:30:28.988Z,947.69
2022-09-28T10:31:28.908Z,947.72
2022-09-28T10:32:28.896Z,947.72
2022-09-28T10:33:28.931Z,947.71
2022-09-28T10:34:28.873Z,947.74
2022-09-28T10:35:28.869Z,947.72
2022-09-28T10:36:28.882Z,947.72
2022-09-28T10:37:28.858Z,947.69
2022-09-28T10:38:28.845Z,947.71
2022-09-28T10:39:28.838Z,947.70
2022-09-28T10:40:28.858Z,947.70
2022-09-28T10:41:28.805Z,947.77
2022-09-28T10:42:28.782Z,947.80
2022-09-28T10:43:28.799Z,947.79
2022-09-28T10:44:28.805Z,947.81
2022-09-28T10:45:28.789Z,947.89
2022-09-28T10:46:28.777Z,947.86
2022-09-28T10:47:28.755Z,947.89
2022-09-28T10:48:28.719Z,947.90
2022-09-28T10:49:28.766Z,947.88
2022-09-28T10:50:28.710Z,947.90
2022-09-28T10:51:28.684Z,947.94
2022-09-28T10:52:28.707Z,947.93
2022-09-28T10:53:28.660Z,947.93
2022-09-28T10:54:28.649Z,947.92
2022-09-28T10:55:28.662Z,947.94
2022-09-28T10:56:28.649Z,947.91
2022-09-28T10:57:28.657Z,947.95
2022-09-28T10:58:28.615Z,947.95
2022-09-28T10:59:28.592Z,947.95
2022-09-28T11:00:28.591Z,948.00
2022-09-28T11:01:28.651Z,948.01
2022-09-28T11:02:31.268Z,947.96
2022-09-28T11:03:29.547Z,947.99
2022-09-28T11:04:28.594Z,948.02
2022-09-28T11:05:28.531Z,948.05
2022-09-28T11:06:28.515Z,948.00
2022-09-28T11:07:28.513Z,947.93
2022-09-28T11:08:28.512Z,947.90
2022-09-28T11:09:30.750Z,947.97
2022-09-28T11:10:28.500Z,947.89
2022-09-28T11:11:28.464Z,947.92
2022-09-28T11:12:28.455Z,947.91
2022-09-28T11:13:29.267Z,947.98
2022-09-28T11:14:28.471Z,947.96
2022-09-28T11:15:28.439Z,947.95
2022-09-28T11:16:28.535Z,947.93
2022-09-28T11:17:28.395Z,947.94
2022-09-28T11:18:28.394Z,947.94
2022-09-28T11:19:28.407Z,947.89
2022-09-28T11:20:28.749Z,947.91
2022-09-28T11:21:28.382Z,947.92
2022-09-28T11:22:28.338Z,947.91
2022-09-28T11:23:28.333Z,947.86
2022-09-28T11:24:28.348Z,947.93
2022-09-28T11:25:28.331Z,947.97
2022-09-28T11:26:28.300Z,947.96
2022-09-28T11:27:28.310Z,947.96
2022-09-28T11:28:28.272Z,947.95
2022-09-28T11:29:28.278Z,947.99
2022-09-28T11:30:28.332Z,947.99
2022-09-28T11:31:28.280Z,947.94
2022-09-28T11:32:28.237Z,947.97
2022-09-28T11:33:28.224Z,948.01
2022-09-28T11:34:41.842Z,947.99
2022-09-28T11:35:29.194Z,947.97
2022-09-28T11:36:28.220Z,948.03
2022-09-28T11:37:28.276Z,948.09
2022-09-28T11:38:28.176Z,948.05
2022-09-28T11:39:28.150Z,948.11
2022-09-28T11:40:28.219Z,948.07
2022-09-28T11:41:28.243Z,948.04
2022-09-28T11:42:28.114Z,948.05
2022-09-28T11:43:28.124Z,948.09
2022-09-28T11:44:31.028Z,948.07
2022-09-28T11:45:29.106Z,948.05
2022-09-28T11:46:28.142Z,948.03
2022-09-28T11:47:28.087Z,948.02
2022-09-28T11:48:28.054Z,947.99
2022-09-28T11:49:28.102Z,947.96
2022-09-28T11:50:28.060Z,948.04
2022-09-28T11:51:28.026Z,948.07
2022-09-28T11:52:28.022Z,948.02
2022-09-28T11:53:28.023Z,948.02
2022-09-28T11:54:27.996Z,948.01
2022-09-28T11:55:27.987Z,948.03
2022-09-28T11:56:28.017Z,948.07
2022-09-28T11:57:27.963Z,948.06
2022-09-28T11:58:27.966Z,948.12
2022-09-28T11:59:27.958Z,948.16
2022-09-28T12:00:27.931Z,948.17
2022-09-28T12:01:27.904Z,948.20
2022-09-28T12:02:27.985Z,948.21
2022-09-28T12:03:27.979Z,948.23
2022-09-28T12:04:27.895Z,948.22
2022-09-28T12:05:27.903Z,948.17
2022-09-28T12:06:27.858Z,948.15
2022-09-28T12:07:27.839Z,948.22
2022-09-28T12:08:27.826Z,948.22
2022-09-28T12:09:27.831Z,948.19
2022-09-28T12:10:27.886Z,948.20
2022-09-28T12:11:27.802Z,948.28
2022-09-28T12:12:27.798Z,948.19
2022-09-28T12:13:27.773Z,948.18
2022-09-28T12:14:27.776Z,948.17
2022-09-28T12:15:27.769Z,948.23
2022-09-28T12:16:53.442Z,948.24
2022-09-28T12:17:28.865Z,948.25
2022-09-28T12:18:27.749Z,948.21
2022-09-28T12:19:27.745Z,948.22
2022-09-28T12:20:27.702Z,948.23
2022-09-28T12:21:27.707Z,948.21
2022-09-28T12:22:27.685Z,948.22
2022-09-28T12:23:27.676Z,948.26
2022-09-28T12:24:27.687Z,948.21
2022-09-28T12:25:27.638Z,948.21
2022-09-28T12:26:27.638Z,948.19
2022-09-28T12:27:27.632Z,948.21
2022-09-28T12:28:27.634Z,948.22
2022-09-28T12:29:27.613Z,948.23